Aviation Digital Data Service (ADDS)

Output produced by METARs form (1933 UTC 22 May 2019)
found at http://aviationweather.gov/metar/data/
 
METAR text: KLVK 221853Z 03007G16KT 10SM FEW050 19/07 A2981 RMK AO2 SLP094 T01890072
Conditions at: KLVK (LIVERMORE , CA, US) observed 1853 UTC 22 May 2019
Temperature: 18.9°C (66°F)
Dewpoint: 7.2°C (45°F) [RH = 47%]
Pressure (altimeter): 29.81 inches Hg (1009.6 mb)
[Sea-level pressure: 1009.4 mb]
Winds: from the NNE (30 degrees) at 8 MPH (7 knots; 3.6 m/s)
gusting to 18 MPH (16 knots; 8.2 m/s)
Visibility: 10 or more miles (16+ km)
Ceiling: at least 12,000 feet AGL
Clouds: few clouds at 5000 feet AGL
Weather: no significant weather observed at this time

METAR text: KLVK 221753Z 02009KT 10SM FEW044 18/07 A2982 RMK AO2 SLP096 T01780067 10178 20094 58002
Conditions at: KLVK (LIVERMORE , CA, US) observed 1753 UTC 22 May 2019
Temperature: 17.8°C (64°F)
Dewpoint: 6.7°C (44°F) [RH = 48%]
Pressure (altimeter): 29.82 inches Hg (1009.9 mb)
[Sea-level pressure: 1009.6 mb]
Winds: from the NNE (20 degrees) at 10 MPH (9 knots; 4.6 m/s)
Visibility: 10 or more miles (16+ km)
Ceiling: at least 12,000 feet AGL
Clouds: few clouds at 4400 feet AGL
Weather: no significant weather observed at this time

METAR text: KLVK 221653Z COR 00000KT 10SM BKN041 15/08 A2983 RMK AO2 SLP099 T01500083
Conditions at: KLVK (LIVERMORE , CA, US) observed 1653 UTC 22 May 2019
Temperature: 15.0°C (59°F)
Dewpoint: 8.3°C (47°F) [RH = 64%]
Pressure (altimeter): 29.83 inches Hg (1010.2 mb)
[Sea-level pressure: 1009.9 mb]
Winds: calm
Visibility: 10 or more miles (16+ km)
Ceiling: 4100 feet AGL
Clouds: broken clouds at 4100 feet AGL
Weather: no significant weather observed at this time

METAR text: KLVK 221553Z 00000KT 10SM CLR 14/09 A2983 RMK AO2 SLP100 T01390089
Conditions at: KLVK (LIVERMORE , CA, US) observed 1553 UTC 22 May 2019
Temperature: 13.9°C (57°F)
Dewpoint: 8.9°C (48°F) [RH = 72%]
Pressure (altimeter): 29.83 inches Hg (1010.2 mb)
[Sea-level pressure: 1010.0 mb]
Winds: calm
Visibility: 10 or more miles (16+ km)
Ceiling: at least 12,000 feet AGL
Clouds: sky clear below 12,000 feet AGL
Weather: no significant weather observed at this time

METAR text: KLVK 221453Z 28005KT 10SM CLR 12/09 A2983 RMK AO2 SLP099 T01220089 53008
Conditions at: KLVK (LIVERMORE , CA, US) observed 1453 UTC 22 May 2019
Temperature: 12.2°C (54°F)
Dewpoint: 8.9°C (48°F) [RH = 80%]
Pressure (altimeter): 29.83 inches Hg (1010.2 mb)
[Sea-level pressure: 1009.9 mb]
Winds: from the W (280 degrees) at 6 MPH (5 knots; 2.6 m/s)
Visibility: 10 or more miles (16+ km)
Ceiling: at least 12,000 feet AGL
Clouds: sky clear below 12,000 feet AGL
Weather: no significant weather observed at this time

METAR text: KLVK 221353Z 26003KT 10SM CLR 11/08 A2982 RMK AO2 SLP095 T01060078
Conditions at: KLVK (LIVERMORE , CA, US) observed 1353 UTC 22 May 2019
Temperature: 10.6°C (51°F)
Dewpoint: 7.8°C (46°F) [RH = 83%]
Pressure (altimeter): 29.82 inches Hg (1009.9 mb)
[Sea-level pressure: 1009.5 mb]
Winds: from the W (260 degrees) at 3 MPH (3 knots; 1.5 m/s)
Visibility: 10 or more miles (16+ km)
Ceiling: at least 12,000 feet AGL
Clouds: sky clear below 12,000 feet AGL
Weather: no significant weather observed at this time

METAR text: KLVK 221253Z AUTO 27006KT 10SM FEW055 10/07 A2980 RMK AO2 SLP089 T01000072
Conditions at: KLVK (LIVERMORE , CA, US) observed 1253 UTC 22 May 2019
Temperature: 10.0°C (50°F)
Dewpoint: 7.2°C (45°F) [RH = 83%]
Pressure (altimeter): 29.80 inches Hg (1009.2 mb)
[Sea-level pressure: 1008.9 mb]
Winds: from the W (270 degrees) at 7 MPH (6 knots; 3.1 m/s)
Visibility: 10 or more miles (16+ km)
Ceiling: at least 12,000 feet AGL
Clouds: few clouds at 5500 feet AGL
Weather: automated observation with no human augmentation;
there may or may not be significant weather present at this time

METAR text: KLVK 221153Z AUTO VRB04KT 10SM FEW019 BKN070 OVC085 11/08 A2980 RMK AO2 SLP091 70008 T01110078 10117 20106 56006
Conditions at: KLVK (LIVERMORE , CA, US) observed 1153 UTC 22 May 2019
Temperature: 11.1°C (52°F)
Dewpoint: 7.8°C (46°F) [RH = 80%]
Pressure (altimeter): 29.80 inches Hg (1009.2 mb)
[Sea-level pressure: 1009.1 mb]
Winds: variable direction winds at 5 MPH (4 knots; 2.1 m/s)
Visibility: 10 or more miles (16+ km)
Ceiling: 7000 feet AGL
Clouds: few clouds at 1900 feet AGL
broken clouds at 7000 feet AGL
overcast cloud deck at 8500 feet AGL
Weather: automated observation with no human augmentation;
there may or may not be significant weather present at this time

Forecast for: KLVK (LIVERMORE , CA, US)
Text: KLVK 221736Z 2218/2318 26009KT P6SM SCT040 SCT150
Forecast period: 1800 to 2100 UTC 22 May 2019
Forecast type: FROM: standard forecast or significant change
Winds: from the W (260 degrees) at 10 MPH (9 knots; 4.6 m/s)
Visibility: 6 or more miles 10+ km)
Ceiling: at least 12,000 feet AGL
Clouds: scattered clouds at 4000 feet AGL
scattered clouds at 15000 feet AGL
Weather: no significant weather forecast for this period
Text: FM222100 27010G16KT P6SM FEW050 SCT200
Forecast period: 2100 UTC 22 May 2019 to 0330 UTC 23 May 2019
Forecast type: FROM: standard forecast or significant change
Winds: from the W (270 degrees) at 12 MPH (10 knots; 5.1 m/s)
gusting to 18 MPH (16 knots; 8.2 m/s)
Visibility: 6 or more miles 10+ km)
Ceiling: at least 12,000 feet AGL
Clouds: few clouds at 5000 feet AGL
scattered clouds at 20000 feet AGL
Weather: no significant weather forecast for this period
Text: FM230330 VRB04KT P6SM SCT025
Forecast period: 0330 to 1700 UTC 23 May 2019
Forecast type: FROM: standard forecast or significant change
Winds: variable direction winds at 5 MPH (4 knots; 2.1 m/s)
Visibility: 6 or more miles 10+ km)
Ceiling: at least 12,000 feet AGL
Clouds: scattered clouds at 2500 feet AGL
Weather: no significant weather forecast for this period
Text: TEMPO 2311/2315 BKN020
Forecast period: 1100 to 1500 UTC 23 May 2019
Forecast type: TEMPORARY: The following changes expected for less than half the time period
Visibility: missing
Ceiling: 2000 feet AGL
Clouds: broken clouds at 2000 feet AGL
Weather: no significant weather forecast for this period
Text: FM231700 VRB03KT P6SM FEW030 SCT050
Forecast period: 1700 to 1800 UTC 23 May 2019
Forecast type: FROM: standard forecast or significant change
Winds: variable direction winds at 3 MPH (3 knots; 1.5 m/s)
Visibility: 6 or more miles 10+ km)
Ceiling: at least 12,000 feet AGL
Clouds: few clouds at 3000 feet AGL
scattered clouds at 5000 feet AGL
Weather: no significant weather forecast for this period